createdAt,value
2018-08-27T00:00:47.866Z,2.27
2018-08-27T00:03:16.241Z,2.03
2018-08-27T00:05:44.569Z,2.07
2018-08-27T00:08:12.883Z,2.20
2018-08-27T00:10:41.231Z,2.50
2018-08-27T00:13:09.549Z,2.20
2018-08-27T00:15:37.959Z,2.23
2018-08-27T00:18:06.356Z,2.23
2018-08-27T00:20:34.725Z,2.40
2018-08-27T00:23:03.107Z,2.20
2018-08-27T00:25:31.499Z,2.20
2018-08-27T00:27:59.825Z,2.10
2018-08-27T00:30:28.175Z,3.07
2018-08-27T00:32:56.533Z,2.80
2018-08-27T00:35:24.869Z,2.50
2018-08-27T00:37:53.293Z,2.40
2018-08-27T00:40:21.650Z,2.87
2018-08-27T00:42:49.992Z,2.70
2018-08-27T00:45:18.512Z,2.40
2018-08-27T00:47:46.899Z,1.97
2018-08-27T00:50:15.216Z,1.83
2018-08-27T00:52:43.584Z,2.40
2018-08-27T00:55:11.919Z,2.20
2018-08-27T00:57:40.294Z,2.63
2018-08-27T01:00:08.869Z,2.60
2018-08-27T01:02:37.186Z,2.53
2018-08-27T01:05:05.583Z,2.80
2018-08-27T01:07:33.954Z,2.53
2018-08-27T01:10:02.335Z,2.30
2018-08-27T01:12:30.681Z,2.60
2018-08-27T01:14:59.019Z,2.57
2018-08-27T01:17:27.332Z,2.23
2018-08-27T01:19:55.703Z,2.60
2018-08-27T01:22:24.081Z,2.53
2018-08-27T01:24:52.410Z,2.20
2018-08-27T01:27:20.794Z,2.30
2018-08-27T01:29:49.123Z,2.47
2018-08-27T01:32:22.771Z,2.40
2018-08-27T01:34:51.109Z,2.67
2018-08-27T01:37:19.458Z,2.13
2018-08-27T01:39:47.785Z,2.40
2018-08-27T01:42:16.160Z,2.63
2018-08-27T01:44:44.501Z,2.10
2018-08-27T01:47:12.862Z,2.10
2018-08-27T01:49:41.168Z,1.90
2018-08-27T01:52:09.628Z,2.03
2018-08-27T01:54:37.976Z,2.40
2018-08-27T01:57:06.311Z,2.37
2018-08-27T01:59:34.695Z,2.13
2018-08-27T02:02:03.168Z,2.00
2018-08-27T02:04:31.533Z,2.20
2018-08-27T02:06:59.870Z,2.20
2018-08-27T02:09:28.217Z,2.40
2018-08-27T02:11:57.945Z,2.20
2018-08-27T02:14:27.569Z,2.27
2018-08-27T02:16:55.943Z,2.13
2018-08-27T02:19:24.369Z,2.20
2018-08-27T02:21:52.738Z,2.20
2018-08-27T02:24:21.118Z,2.13
2018-08-27T02:26:49.464Z,2.07
2018-08-27T02:29:17.868Z,2.30
2018-08-27T02:31:46.208Z,2.27
2018-08-27T02:34:14.590Z,2.03
2018-08-27T02:36:42.940Z,2.27
2018-08-27T02:39:14.447Z,2.40
2018-08-27T02:41:43.394Z,2.50
2018-08-27T02:44:11.838Z,2.10
2018-08-27T02:46:40.573Z,2.20
2018-08-27T02:49:08.913Z,2.23
2018-08-27T02:51:37.266Z,2.13
2018-08-27T02:54:05.720Z,2.00
2018-08-27T02:56:34.077Z,2.23
2018-08-27T02:59:02.488Z,1.97
2018-08-27T03:01:30.812Z,2.23
2018-08-27T03:03:59.163Z,2.40
2018-08-27T03:06:27.497Z,2.30
2018-08-27T03:08:55.860Z,2.00
2018-08-27T03:11:24.198Z,2.20
2018-08-27T03:13:52.519Z,2.40
2018-08-27T03:16:20.870Z,2.00
2018-08-27T03:18:49.259Z,2.10
2018-08-27T03:21:17.661Z,1.97
2018-08-27T03:23:46.027Z,2.20
2018-08-27T03:26:14.358Z,1.97
2018-08-27T03:28:42.671Z,2.67
2018-08-27T03:31:11.014Z,2.10
2018-08-27T03:33:39.335Z,2.13
2018-08-27T03:36:07.668Z,2.20
2018-08-27T03:38:35.992Z,3.40
2018-08-27T03:41:04.330Z,2.20
2018-08-27T03:43:32.644Z,2.80
2018-08-27T03:46:01.013Z,2.17
2018-08-27T03:48:29.376Z,2.10
2018-08-27T03:50:57.698Z,2.20
2018-08-27T03:53:25.996Z,2.43
2018-08-27T03:55:54.364Z,2.40
2018-08-27T03:58:22.720Z,2.40
2018-08-27T04:00:51.044Z,2.13
2018-08-27T04:03:19.451Z,2.10
2018-08-27T04:05:47.775Z,2.00
2018-08-27T04:08:16.108Z,2.20
2018-08-27T04:10:44.447Z,2.30
2018-08-27T04:13:12.810Z,2.20
2018-08-27T04:15:41.141Z,2.17
2018-08-27T04:18:09.520Z,2.10
2018-08-27T04:20:37.820Z,2.53
2018-08-27T04:23:06.204Z,2.53
2018-08-27T04:25:34.555Z,2.30
2018-08-27T04:28:02.907Z,2.23
2018-08-27T04:30:31.228Z,2.70
2018-08-27T04:32:59.576Z,2.50
2018-08-27T04:35:27.888Z,2.33
2018-08-27T04:37:56.240Z,2.67
2018-08-27T04:40:24.628Z,2.53
2018-08-27T04:42:52.923Z,2.77
2018-08-27T04:45:21.300Z,2.50
2018-08-27T04:47:49.652Z,2.23
2018-08-27T04:50:18.018Z,2.30
2018-08-27T04:52:46.372Z,2.53
2018-08-27T04:55:14.705Z,2.90
2018-08-27T04:57:43.087Z,2.60
2018-08-27T05:00:16.244Z,2.87
2018-08-27T05:02:44.625Z,2.60
2018-08-27T05:05:12.937Z,2.40
2018-08-27T05:07:41.263Z,2.50
2018-08-27T05:10:09.618Z,2.30
2018-08-27T05:12:38.005Z,2.60
2018-08-27T05:15:06.356Z,2.37
2018-08-27T05:17:34.683Z,2.93
2018-08-27T05:20:03.054Z,2.30
2018-08-27T05:22:31.439Z,2.60
2018-08-27T05:24:59.752Z,2.60
2018-08-27T05:27:28.169Z,2.70
2018-08-27T05:29:56.479Z,3.30
2018-08-27T05:32:24.777Z,3.43
2018-08-27T05:34:53.098Z,2.83
2018-08-27T05:37:21.398Z,3.07
2018-08-27T05:39:49.753Z,2.30
2018-08-27T05:42:18.075Z,2.50
2018-08-27T05:44:46.446Z,2.60
2018-08-27T05:47:14.778Z,2.47
2018-08-27T05:49:43.212Z,2.23
2018-08-27T05:52:11.629Z,2.27
2018-08-27T05:54:39.918Z,2.63
2018-08-27T05:57:08.265Z,2.60
2018-08-27T05:59:36.643Z,2.80
2018-08-27T06:02:05.052Z,2.57
2018-08-27T06:04:33.436Z,2.50
2018-08-27T06:07:01.818Z,2.30
2018-08-27T06:09:30.188Z,2.27
2018-08-27T06:11:58.542Z,2.30
2018-08-27T06:14:26.864Z,2.13
2018-08-27T06:16:55.220Z,2.07
2018-08-27T06:19:23.591Z,2.30
2018-08-27T06:21:51.998Z,2.30
2018-08-27T06:24:20.415Z,2.10
2018-08-27T06:26:48.861Z,2.20
2018-08-27T06:29:17.277Z,2.07
2018-08-27T06:31:45.667Z,2.60
2018-08-27T06:34:13.973Z,2.37
2018-08-27T06:36:42.354Z,2.10
2018-08-27T06:39:10.902Z,2.10
2018-08-27T06:41:39.289Z,2.33
2018-08-27T06:44:08.148Z,2.57
2018-08-27T06:46:36.560Z,2.23
2018-08-27T06:49:04.984Z,1.77
2018-08-27T06:51:33.374Z,2.30
2018-08-27T06:54:01.700Z,1.73
2018-08-27T06:56:30.101Z,2.20
2018-08-27T06:58:58.484Z,2.17
2018-08-27T07:01:26.936Z,2.20
2018-08-27T07:03:55.363Z,2.10
2018-08-27T07:06:23.770Z,2.10
2018-08-27T07:08:52.168Z,2.30
2018-08-27T07:11:20.540Z,2.10
2018-08-27T07:13:49.020Z,2.00
2018-08-27T07:16:17.373Z,2.10
2018-08-27T07:18:45.759Z,2.20
2018-08-27T07:21:14.129Z,1.80
2018-08-27T07:23:42.464Z,2.00
2018-08-27T07:26:10.822Z,1.80
2018-08-27T07:28:39.211Z,1.97
2018-08-27T07:31:07.558Z,2.03
2018-08-27T07:33:35.950Z,2.10
2018-08-27T07:36:04.362Z,2.33
2018-08-27T07:38:32.692Z,2.50
2018-08-27T07:41:01.021Z,2.20
2018-08-27T07:43:29.465Z,4.20
2018-08-27T07:45:57.814Z,2.27
2018-08-27T07:48:26.146Z,2.07
2018-08-27T07:50:54.628Z,2.40
2018-08-27T07:53:23.465Z,1.93
2018-08-27T07:55:52.007Z,1.83
2018-08-27T07:58:20.521Z,2.40
2018-08-27T08:00:48.877Z,1.90
2018-08-27T08:03:17.170Z,2.23
2018-08-27T08:05:45.520Z,2.47
2018-08-27T08:08:13.829Z,2.20
2018-08-27T08:10:42.270Z,2.20
2018-08-27T08:13:10.628Z,2.30
2018-08-27T08:15:38.956Z,2.30
2018-08-27T08:18:11.687Z,2.30
2018-08-27T08:20:40.273Z,2.10
2018-08-27T08:23:08.604Z,2.10
2018-08-27T08:25:36.989Z,2.10
2018-08-27T08:28:05.356Z,2.20
2018-08-27T08:30:33.693Z,2.27
2018-08-27T08:33:02.049Z,2.30
2018-08-27T08:35:30.414Z,2.60
2018-08-27T08:37:58.897Z,2.30
2018-08-27T08:40:27.274Z,2.33
2018-08-27T08:42:55.636Z,2.40
2018-08-27T08:45:24.032Z,2.80
2018-08-27T08:47:52.458Z,3.20
2018-08-27T08:50:21.292Z,2.10
2018-08-27T08:52:49.774Z,2.00
2018-08-27T08:55:18.267Z,3.80
2018-08-27T08:57:46.590Z,2.40
2018-08-27T09:00:15.564Z,2.30
2018-08-27T09:02:44.093Z,2.20
2018-08-27T09:05:12.452Z,2.27
2018-08-27T09:07:40.763Z,2.23
2018-08-27T09:10:11.244Z,2.03
2018-08-27T09:12:40.850Z,2.00
2018-08-27T09:15:09.770Z,2.20
2018-08-27T09:17:38.232Z,1.90
2018-08-27T09:20:08.119Z,2.20
2018-08-27T09:22:36.576Z,2.07
2018-08-27T09:25:05.028Z,1.90
2018-08-27T09:27:33.412Z,1.97
2018-08-27T09:30:01.753Z,2.00
2018-08-27T09:32:31.190Z,1.83
2018-08-27T09:35:06.583Z,2.00
2018-08-27T09:37:35.122Z,2.13
2018-08-27T09:40:03.516Z,2.77
2018-08-27T09:42:31.901Z,1.77
2018-08-27T09:45:00.227Z,2.23
2018-08-27T09:47:28.599Z,1.80
2018-08-27T09:49:57.022Z,3.27
2018-08-27T09:52:25.428Z,1.90
2018-08-27T09:54:53.774Z,1.87
2018-08-27T09:57:22.123Z,2.27
2018-08-27T09:59:50.505Z,2.20
2018-08-27T10:02:18.883Z,1.93
2018-08-27T10:04:47.353Z,2.13
2018-08-27T10:07:15.687Z,1.80
2018-08-27T10:09:44.044Z,2.07
2018-08-27T10:12:12.455Z,1.70
2018-08-27T10:14:40.807Z,2.10
2018-08-27T10:17:09.160Z,2.00
2018-08-27T10:19:37.604Z,1.90
2018-08-27T10:22:06.394Z,1.80
2018-08-27T10:24:34.716Z,2.10
2018-08-27T10:27:03.120Z,1.80
2018-08-27T10:29:31.645Z,1.77
2018-08-27T10:31:59.985Z,2.07
2018-08-27T10:34:28.349Z,2.30
2018-08-27T10:36:56.662Z,1.97
2018-08-27T10:39:25.065Z,2.17
2018-08-27T10:41:53.494Z,2.23
2018-08-27T10:44:21.825Z,2.23
2018-08-27T10:46:50.211Z,2.50
2018-08-27T10:49:18.614Z,2.03
2018-08-27T10:51:46.928Z,1.70
2018-08-27T10:54:15.276Z,2.00
2018-08-27T10:56:43.643Z,1.80
2018-08-27T10:59:12.018Z,2.10
2018-08-27T11:01:40.349Z,2.40
2018-08-27T11:04:08.890Z,1.73
2018-08-27T11:06:37.243Z,1.80
2018-08-27T11:09:06.984Z,1.63
2018-08-27T11:11:35.338Z,2.27
2018-08-27T11:14:03.675Z,2.70
2018-08-27T11:16:32.421Z,1.80
2018-08-27T11:19:00.795Z,1.80
2018-08-27T11:21:29.168Z,2.10
2018-08-27T11:24:00.858Z,1.90
2018-08-27T11:26:29.310Z,2.03
2018-08-27T11:28:57.601Z,2.20
2018-08-27T11:31:25.996Z,1.93
2018-08-27T11:33:54.467Z,2.00
2018-08-27T11:36:22.805Z,2.13
2018-08-27T11:38:51.179Z,2.10
2018-08-27T11:41:19.518Z,2.00
2018-08-27T11:43:47.922Z,1.90
2018-08-27T11:46:16.250Z,1.80
2018-08-27T11:48:44.577Z,2.27
2018-08-27T11:51:12.977Z,1.87
2018-08-27T11:53:41.337Z,2.00
2018-08-27T11:56:09.741Z,1.73
2018-08-27T11:58:38.210Z,1.90
2018-08-27T12:01:07.952Z,2.00
2018-08-27T12:03:36.984Z,1.87
2018-08-27T12:06:05.488Z,1.73
2018-08-27T12:08:33.889Z,2.00
2018-08-27T12:11:02.663Z,1.70
2018-08-27T12:13:31.051Z,2.17
2018-08-27T12:15:59.552Z,2.10
2018-08-27T12:18:27.940Z,2.13
2018-08-27T12:20:56.301Z,2.10
2018-08-27T12:23:24.690Z,1.90
2018-08-27T12:25:53.077Z,2.40
2018-08-27T12:28:21.467Z,2.20
2018-08-27T12:30:49.896Z,2.40
2018-08-27T12:33:18.262Z,1.70
2018-08-27T12:35:46.666Z,2.43
2018-08-27T12:38:15.055Z,1.90
2018-08-27T12:40:43.503Z,3.63
2018-08-27T12:43:11.928Z,2.50
2018-08-27T12:45:40.284Z,1.90
2018-08-27T12:48:09.618Z,1.80
2018-08-27T12:50:38.647Z,1.90
2018-08-27T12:53:07.138Z,2.10
2018-08-27T12:55:35.606Z,1.67
2018-08-27T12:58:04.062Z,2.30
2018-08-27T13:00:32.419Z,2.00
2018-08-27T13:03:00.929Z,2.23
2018-08-27T13:05:29.376Z,2.00
2018-08-27T13:07:58.090Z,2.00
2018-08-27T13:10:26.402Z,2.30
2018-08-27T13:12:54.836Z,2.17
2018-08-27T13:15:23.128Z,2.50
2018-08-27T13:17:51.520Z,2.40
2018-08-27T13:20:19.873Z,2.10
2018-08-27T13:22:48.191Z,2.10
2018-08-27T13:25:16.546Z,2.37
2018-08-27T13:27:44.973Z,2.13
2018-08-27T13:30:13.499Z,1.70
2018-08-27T13:32:41.828Z,2.13
2018-08-27T13:35:10.252Z,3.30
2018-08-27T13:37:38.582Z,4.07
2018-08-27T13:40:07.762Z,4.20
2018-08-27T13:42:36.089Z,2.53
2018-08-27T13:45:04.716Z,2.20
2018-08-27T13:47:33.107Z,1.90
2018-08-27T13:50:01.487Z,1.77
2018-08-27T13:52:29.788Z,2.20
2018-08-27T13:54:58.110Z,1.90
2018-08-27T13:57:26.504Z,2.23
2018-08-27T13:59:54.942Z,2.30
2018-08-27T14:02:23.287Z,1.77
2018-08-27T14:04:51.591Z,1.93
2018-08-27T14:07:19.965Z,1.40
2018-08-27T14:09:48.297Z,1.60
2018-08-27T14:12:16.773Z,1.80
2018-08-27T14:14:45.189Z,1.63
2018-08-27T14:17:13.527Z,1.73
2018-08-27T14:19:41.947Z,1.70
2018-08-27T14:22:10.292Z,1.67
2018-08-27T14:24:38.707Z,1.80
2018-08-27T14:27:07.005Z,1.77
2018-08-27T14:29:35.401Z,1.83
2018-08-27T14:32:03.717Z,1.77
2018-08-27T14:34:32.129Z,1.80
2018-08-27T14:37:00.504Z,1.93
2018-08-27T14:39:28.917Z,2.70
2018-08-27T14:41:57.299Z,1.80
2018-08-27T14:44:25.683Z,1.90
2018-08-27T14:46:54.088Z,1.80
2018-08-27T14:49:22.497Z,1.70
2018-08-27T14:51:50.824Z,2.30
2018-08-27T14:54:19.615Z,1.80
2018-08-27T14:56:47.978Z,1.80
2018-08-27T14:59:16.376Z,1.80
2018-08-27T15:01:47.297Z,1.77
2018-08-27T15:04:16.172Z,2.57
2018-08-27T15:06:44.547Z,1.70
2018-08-27T15:09:12.849Z,2.00
2018-08-27T15:11:41.184Z,1.87
2018-08-27T15:14:10.164Z,1.90
2018-08-27T15:16:38.656Z,2.00
2018-08-27T15:19:07.172Z,1.80
2018-08-27T15:21:35.543Z,2.20
2018-08-27T15:24:03.890Z,2.33
2018-08-27T15:26:32.268Z,1.70
2018-08-27T15:29:00.738Z,1.90
2018-08-27T15:31:29.126Z,1.60
2018-08-27T15:33:57.473Z,1.53
2018-08-27T15:36:25.846Z,1.70
2018-08-27T15:38:54.313Z,1.53
2018-08-27T15:41:22.681Z,1.43
2018-08-27T15:43:51.064Z,1.40
2018-08-27T15:46:25.181Z,1.40
2018-08-27T15:48:53.645Z,1.70
2018-08-27T15:51:22.132Z,1.50
2018-08-27T15:53:50.463Z,1.73
2018-08-27T15:56:18.892Z,1.90
2018-08-27T15:58:47.196Z,1.47
2018-08-27T16:01:15.603Z,1.50
2018-08-27T16:03:44.830Z,1.43
2018-08-27T16:06:13.668Z,1.27
2018-08-27T16:08:42.931Z,1.50
2018-08-27T16:11:11.354Z,1.77
2018-08-27T16:13:40.551Z,1.60
2018-08-27T16:16:10.226Z,1.90
2018-08-27T16:18:38.653Z,1.50
2018-08-27T16:21:07.806Z,1.70
2018-08-27T16:23:36.598Z,1.33
2018-08-27T16:26:05.010Z,1.40
2018-08-27T16:28:33.361Z,1.40
2018-08-27T16:31:01.734Z,1.33
2018-08-27T16:33:30.048Z,1.80
2018-08-27T16:35:58.999Z,1.43
2018-08-27T16:38:27.588Z,1.80
2018-08-27T16:40:55.912Z,1.70
2018-08-27T16:43:24.376Z,1.67
2018-08-27T16:45:52.703Z,1.70
2018-08-27T16:48:21.089Z,1.53
2018-08-27T16:50:49.485Z,1.70
2018-08-27T16:53:17.834Z,1.67
2018-08-27T16:55:46.216Z,1.50
2018-08-27T16:58:15.057Z,1.70
2018-08-27T17:00:43.692Z,1.70
2018-08-27T17:03:12.108Z,1.60
2018-08-27T17:05:40.474Z,1.83
2018-08-27T17:08:08.847Z,1.80
2018-08-27T17:10:37.240Z,1.57
2018-08-27T17:13:05.722Z,1.77
2018-08-27T17:15:34.112Z,1.73
2018-08-27T17:18:02.496Z,1.63
2018-08-27T17:20:30.865Z,1.70
2018-08-27T17:22:59.292Z,1.70
2018-08-27T17:25:27.666Z,1.40
2018-08-27T17:27:56.024Z,1.50
2018-08-27T17:30:24.428Z,1.83
2018-08-27T17:32:52.994Z,1.57
2018-08-27T17:35:21.442Z,1.40
2018-08-27T17:37:49.820Z,1.77
2018-08-27T17:40:18.254Z,1.63
2018-08-27T17:42:46.798Z,1.70
2018-08-27T17:45:15.435Z,1.37
2018-08-27T17:47:44.143Z,1.77
2018-08-27T17:50:12.934Z,1.70
2018-08-27T17:52:41.608Z,1.43
2018-08-27T17:55:10.015Z,1.70
2018-08-27T17:57:38.406Z,2.00
2018-08-27T18:00:06.924Z,1.90
2018-08-27T18:02:35.442Z,1.40
2018-08-27T18:05:03.952Z,1.93
2018-08-27T18:07:32.291Z,1.80
2018-08-27T18:10:00.818Z,1.70
2018-08-27T18:12:29.602Z,1.80
2018-08-27T18:14:58.275Z,2.00
2018-08-27T18:17:27.414Z,1.90
2018-08-27T18:19:56.068Z,2.03
2018-08-27T18:22:24.741Z,1.67
2018-08-27T18:24:53.240Z,2.00
2018-08-27T18:27:21.641Z,2.00
2018-08-27T18:29:50.246Z,2.03
2018-08-27T18:32:18.633Z,2.10
2018-08-27T18:34:47.292Z,1.53
2018-08-27T18:37:15.927Z,1.90
2018-08-27T18:39:44.429Z,1.80
2018-08-27T18:42:12.989Z,1.97
2018-08-27T18:44:41.450Z,2.10
2018-08-27T18:47:10.095Z,1.80
2018-08-27T18:49:38.989Z,2.00
2018-08-27T18:52:08.018Z,2.20
2018-08-27T18:54:36.796Z,2.57
2018-08-27T18:57:05.581Z,1.90
2018-08-27T18:59:34.214Z,1.80
2018-08-27T19:02:03.152Z,1.90
2018-08-27T19:04:32.081Z,2.03
2018-08-27T19:07:01.062Z,1.60
2018-08-27T19:09:30.022Z,2.07
2018-08-27T19:11:58.931Z,1.60
2018-08-27T19:14:27.816Z,3.97
2018-08-27T19:16:56.529Z,1.80
2018-08-27T19:19:25.435Z,1.60
2018-08-27T19:21:54.315Z,1.53
2018-08-27T19:24:23.152Z,2.00
2018-08-27T19:26:52.003Z,1.93
2018-08-27T19:29:20.926Z,2.00
2018-08-27T19:31:49.834Z,1.93
2018-08-27T19:34:18.672Z,2.10
2018-08-27T19:36:47.844Z,2.30
2018-08-27T19:39:16.934Z,2.23
2018-08-27T19:41:45.953Z,2.20
2018-08-27T19:44:14.878Z,2.20
2018-08-27T19:46:43.890Z,2.70
2018-08-27T19:49:12.593Z,3.10
2018-08-27T19:51:41.558Z,2.80
2018-08-27T19:54:10.280Z,2.70
2018-08-27T19:56:38.933Z,2.87
2018-08-27T19:59:07.383Z,2.47
2018-08-27T20:01:35.827Z,2.67
2018-08-27T20:04:04.277Z,2.30
2018-08-27T20:06:32.640Z,2.70
2018-08-27T20:09:01.133Z,2.70
2018-08-27T20:11:29.568Z,2.40
2018-08-27T20:13:57.902Z,2.87
2018-08-27T20:16:26.328Z,2.70
2018-08-27T20:18:54.674Z,2.60
2018-08-27T20:21:23.106Z,3.07
2018-08-27T20:23:51.487Z,2.83
2018-08-27T20:26:19.887Z,3.13
2018-08-27T20:28:48.224Z,2.90
2018-08-27T20:31:16.598Z,2.90
2018-08-27T20:33:44.980Z,2.67
2018-08-27T20:36:13.353Z,2.70
2018-08-27T20:38:41.821Z,2.70
2018-08-27T20:41:10.189Z,2.90
2018-08-27T20:43:38.605Z,2.73
2018-08-27T20:46:07.020Z,2.77
2018-08-27T20:48:35.372Z,3.17
2018-08-27T20:51:03.796Z,3.13
2018-08-27T20:53:32.487Z,3.30
2018-08-27T20:56:01.205Z,3.47
2018-08-27T20:58:29.745Z,3.07
2018-08-27T21:00:58.101Z,3.20
2018-08-27T21:03:26.496Z,3.87
2018-08-27T21:05:54.862Z,3.33
2018-08-27T21:08:23.305Z,3.50
2018-08-27T21:10:51.731Z,3.53
2018-08-27T21:13:20.103Z,3.63
2018-08-27T21:15:48.473Z,3.47
2018-08-27T21:18:16.903Z,4.10
2018-08-27T21:20:45.355Z,4.10
2018-08-27T21:23:13.813Z,4.30
2018-08-27T21:25:42.208Z,3.97
2018-08-27T21:28:10.561Z,4.60
2018-08-27T21:30:38.916Z,4.43
2018-08-27T21:33:07.341Z,4.90
2018-08-27T21:35:35.727Z,4.70
2018-08-27T21:38:04.138Z,4.53
2018-08-27T21:40:32.413Z,4.97
2018-08-27T21:43:00.776Z,5.00
2018-08-27T21:45:29.210Z,4.50
2018-08-27T21:47:57.623Z,4.70
2018-08-27T21:50:25.970Z,4.97
2018-08-27T21:52:54.363Z,4.03
2018-08-27T21:55:22.740Z,4.97
2018-08-27T21:57:51.078Z,4.10
2018-08-27T22:00:19.514Z,4.33
2018-08-27T22:02:53.312Z,4.40
2018-08-27T22:05:21.657Z,4.70
2018-08-27T22:07:50.122Z,4.40
2018-08-27T22:10:18.520Z,4.53
2018-08-27T22:12:46.929Z,3.60
2018-08-27T22:15:15.352Z,3.50
2018-08-27T22:17:43.698Z,4.23
2018-08-27T22:20:12.061Z,3.80
2018-08-27T22:22:40.408Z,4.00
2018-08-27T22:25:08.796Z,3.47
2018-08-27T22:27:37.188Z,4.23
2018-08-27T22:30:05.885Z,3.77
2018-08-27T22:32:35.036Z,4.70
2018-08-27T22:35:03.445Z,4.50
2018-08-27T22:37:31.785Z,4.17
2018-08-27T22:40:00.172Z,4.60
2018-08-27T22:42:28.530Z,3.80
2018-08-27T22:44:56.876Z,3.90
2018-08-27T22:47:25.223Z,3.80
2018-08-27T22:49:53.582Z,4.03
2018-08-27T22:52:21.997Z,4.10
2018-08-27T22:54:50.381Z,4.03
2018-08-27T22:57:18.834Z,4.93
2018-08-27T22:59:47.120Z,4.50
2018-08-27T23:02:19.785Z,4.23
2018-08-27T23:04:56.838Z,3.93
2018-08-27T23:07:25.268Z,4.10
2018-08-27T23:09:53.818Z,4.53
2018-08-27T23:12:22.130Z,4.50
2018-08-27T23:14:50.513Z,5.13
2018-08-27T23:17:18.829Z,5.10
2018-08-27T23:19:47.167Z,4.27
2018-08-27T23:22:15.519Z,5.10
2018-08-27T23:24:43.880Z,4.77
2018-08-27T23:27:12.305Z,5.17
2018-08-27T23:29:41.020Z,4.60
2018-08-27T23:32:09.349Z,4.63
2018-08-27T23:34:37.698Z,5.50
2018-08-27T23:37:06.040Z,4.70
2018-08-27T23:39:34.402Z,5.17
2018-08-27T23:42:02.793Z,4.93
2018-08-27T23:44:31.109Z,5.20
2018-08-27T23:46:59.464Z,5.03
2018-08-27T23:49:27.825Z,4.87
2018-08-27T23:51:56.214Z,4.17
2018-08-27T23:54:24.577Z,5.00
2018-08-27T23:56:53.022Z,4.60
2018-08-27T23:59:21.367Z,4.67
